Time;durP1;ratioP1;P1;durP2;ratioP2;P2;SDS_P1;SDS_P2;PMS_P1;PMS_P2;Temp;Humidity;BMP_temperature;BMP_pressure;BME280_temperature;BME280_humidity;BME280_pressure;Samples;Min_cycle;Max_cycle;Signal;HPM_P1;HPM_P2
2022/08/05 00:01:56;;;;;;;3.08;2.30;;;;;;;21.75;52.11;99355.00;4893373;29;20031;-94
2022/08/05 00:04:21;;;;;;;4.45;2.17;;;;;;;21.70;51.72;99352.47;4893450;29;20090;-94
2022/08/05 00:06:47;;;;;;;4.60;2.10;;;;;;;21.74;52.31;99358.88;4892912;29;20032;-95
2022/08/05 00:09:12;;;;;;;3.85;2.08;;;;;;;21.74;52.32;99361.59;4893145;29;20066;-94
2022/08/05 00:11:38;;;;;;;3.42;2.13;;;;;;;21.72;51.85;99361.16;4893321;29;20027;-94
2022/08/05 00:14:03;;;;;;;3.38;2.22;;;;;;;21.67;51.96;99353.97;4892913;29;20028;-95
2022/08/05 00:16:29;;;;;;;5.63;2.15;;;;;;;21.62;52.44;99351.44;4892104;29;20027;-94
2022/08/05 00:18:54;;;;;;;3.13;2.28;;;;;;;21.63;52.31;99350.31;4892834;29;20418;-94
2022/08/05 00:21:20;;;;;;;2.75;2.03;;;;;;;21.58;52.99;99353.25;4892607;29;20027;-94
2022/08/05 00:23:46;;;;;;;5.65;2.40;;;;;;;21.54;52.64;99352.34;4893738;29;20020;-93
2022/08/05 00:26:11;;;;;;;9.73;2.42;;;;;;;21.46;52.55;99351.34;4907553;29;20058;-95
2022/08/05 00:28:37;;;;;;;3.78;2.38;;;;;;;21.45;53.44;99347.00;4908557;29;20034;-94
2022/08/05 00:31:03;;;;;;;2.83;2.15;;;;;;;21.47;52.76;99350.19;4892774;29;20051;-94
2022/08/05 00:33:28;;;;;;;3.00;2.45;;;;;;;21.48;52.98;99348.25;4908473;29;20051;-95
2022/08/05 00:35:54;;;;;;;5.10;2.50;;;;;;;21.40;53.05;99339.78;4908728;29;20032;-95
2022/08/05 00:38:19;;;;;;;4.53;2.42;;;;;;;21.46;52.69;99342.31;4909181;29;20042;-94
2022/08/05 00:40:47;;;;;;;5.68;2.40;;;;;;;21.44;53.22;99337.19;4893307;29;20138;-93
2022/08/05 00:43:13;;;;;;;8.15;3.40;;;;;;;21.69;51.31;99348.94;4893283;29;20143;-94
2022/08/05 00:45:38;;;;;;;7.13;3.33;;;;;;;21.87;50.48;99355.00;4893243;29;20479;-95
2022/08/05 00:48:04;;;;;;;6.55;2.58;;;;;;;21.94;49.88;99343.44;4893060;29;20083;-94
2022/08/05 00:50:30;;;;;;;4.05;2.40;;;;;;;21.88;50.06;99347.56;4892629;29;20062;-95
2022/08/05 00:52:55;;;;;;;3.10;2.25;;;;;;;21.84;50.02;99328.25;4907850;29;20040;-94
2022/08/05 00:55:21;;;;;;;3.75;2.60;;;;;;;22.12;49.80;99354.91;4892849;29;20031;-94
2022/08/05 00:57:47;;;;;;;4.43;2.90;;;;;;;21.99;49.51;99329.47;4909399;29;20111;-95
2022/08/05 01:00:12;;;;;;;3.63;2.67;;;;;;;22.07;49.38;99338.72;4908459;29;20031;-95
2022/08/05 01:02:38;;;;;;;4.50;2.63;;;;;;;22.09;49.51;99339.19;4892277;29;20205;-95
2022/08/05 01:05:05;;;;;;;4.47;2.33;;;;;;;22.05;49.30;99327.31;4893037;29;20035;-95
2022/08/05 01:07:30;;;;;;;2.58;1.92;;;;;;;22.03;49.39;99324.91;4907585;29;20077;-93
2022/08/05 01:09:56;;;;;;;3.47;2.50;;;;;;;22.08;49.39;99340.31;4892443;29;20028;-95
2022/08/05 01:12:22;;;;;;;2.80;2.33;;;;;;;21.98;49.42;99336.91;4892914;29;20474;-95
2022/08/05 01:14:57;;;;;;;4.03;2.40;;;;;;;21.75;50.84;99346.78;4892470;29;20097;-94
2022/08/05 01:17:42;;;;;;;6.78;2.65;;;;;;;21.63;52.13;99336.59;4893321;29;20035;-93
2022/08/05 01:20:29;;;;;;;3.35;2.50;;;;;;;21.57;52.69;99346.19;4908227;29;20027;-94
2022/08/05 01:23:27;;;;;;;3.45;2.28;;;;;;;21.47;53.53;99352.13;4924014;29;20023;-94
2022/08/05 01:26:03;;;;;;;4.32;2.60;;;;;;;21.37;53.96;99348.69;4928992;29;20036;-93
2022/08/05 01:29:13;;;;;;;2.70;2.22;;;;;;;21.31;53.32;99351.97;4923325;29;20032;-95
2022/08/05 01:31:45;;;;;;;4.88;2.67;;;;;;;21.31;53.17;99347.31;4940576;29;20138;-93
2022/08/05 01:34:14;;;;;;;3.70;2.45;;;;;;;21.22;54.12;99340.34;4923316;29;20034;-93
2022/08/05 01:36:45;;;;;;;4.97;2.45;;;;;;;21.14;54.17;99333.81;4907322;29;20109;-93
2022/08/05 01:39:11;;;;;;;2.92;2.20;;;;;;;21.04;54.29;99331.50;4906899;29;20023;-95
2022/08/05 01:41:36;;;;;;;3.28;2.30;;;;;;;20.99;54.64;99327.06;4891607;29;20126;-94
2022/08/05 01:44:02;;;;;;;3.78;2.53;;;;;;;20.92;54.51;99324.88;4891715;29;20111;-94
2022/08/05 01:46:28;;;;;;;3.35;2.40;;;;;;;20.91;55.07;99328.75;4906978;29;20418;-93
2022/08/05 01:48:54;;;;;;;3.95;2.30;;;;;;;20.90;55.09;99321.69;4890351;29;20031;-94
2022/08/05 01:51:19;;;;;;;3.15;2.55;;;;;;;20.86;54.94;99328.97;4891180;29;20078;-94
2022/08/05 01:53:45;;;;;;;2.88;2.58;;;;;;;20.88;54.93;99340.38;4892069;29;20027;-95
2022/08/05 01:56:11;;;;;;;3.25;2.40;;;;;;;20.84;55.16;99324.97;4907104;29;20418;-94
2022/08/05 01:58:37;;;;;;;2.90;2.00;;;;;;;20.78;55.29;99316.19;4891536;29;20027;-95
2022/08/05 02:01:02;;;;;;;3.78;2.70;;;;;;;20.94;55.02;99332.75;4892124;29;20024;-94
2022/08/05 02:03:31;;;;;;;3.75;2.50;;;;;;;20.85;54.93;99330.09;4891772;29;20042;-93
2022/08/05 02:05:59;;;;;;;3.00;2.60;;;;;;;20.85;55.49;99335.56;4890748;29;20027;-93
2022/08/05 02:08:26;;;;;;;3.38;2.42;;;;;;;20.82;54.73;99330.00;4907028;29;20505;-94
2022/08/05 02:11:01;;;;;;;3.42;2.53;;;;;;;20.88;54.59;99340.38;4892045;29;20575;-94
2022/08/05 02:13:32;;;;;;;4.57;2.40;;;;;;;20.76;55.53;99335.66;4892984;29;20055;-95
2022/08/05 02:16:01;;;;;;;3.73;2.10;;;;;;;20.67;55.79;99326.75;4907718;29;20027;-94
2022/08/05 02:18:42;;;;;;;4.50;2.72;;;;;;;20.69;56.07;99326.41;4907541;29;20392;-93
2022/08/05 02:21:15;;;;;;;3.20;2.40;;;;;;;20.64;56.36;99329.34;4907692;29;20545;-93
2022/08/05 02:23:42;;;;;;;5.00;3.15;;;;;;;20.60;56.59;99337.44;4890909;29;20554;-95
2022/08/05 02:26:09;;;;;;;4.03;2.88;;;;;;;20.63;56.24;99344.97;4891639;29;20061;-94
2022/08/05 02:28:37;;;;;;;7.07;3.40;;;;;;;20.50;56.38;99330.44;4890803;29;20027;-94
2022/08/05 02:31:22;;;;;;;6.65;3.67;;;;;;;20.58;56.42;99337.75;4883479;29;20106;-94
2022/08/05 02:33:51;;;;;;;4.35;2.88;;;;;;;20.55;56.87;99335.69;4872651;29;20028;-94
2022/08/05 02:36:18;;;;;;;6.57;2.78;;;;;;;20.42;56.73;99322.28;4872500;29;20035;-95
2022/08/05 02:38:47;;;;;;;4.15;3.10;;;;;;;20.35;57.21;99331.03;4872665;29;20031;-94
2022/08/05 02:41:13;;;;;;;5.88;2.80;;;;;;;20.41;57.57;99337.91;4871690;29;20387;-94
2022/08/05 02:43:38;;;;;;;6.07;2.45;;;;;;;20.22;58.06;99319.25;4887049;29;20228;-94
2022/08/05 02:46:04;;;;;;;7.05;3.10;;;;;;;20.34;58.01;99335.69;4887948;29;20028;-94
2022/08/05 02:48:30;;;;;;;5.35;3.58;;;;;;;20.28;57.79;99339.78;4872570;29;20029;-93
2022/08/05 02:51:01;;;;;;;7.00;4.28;;;;;;;20.26;57.89;99339.31;4901916;29;20121;-94
2022/08/05 02:53:27;;;;;;;7.25;4.95;;;;;;;20.14;58.16;99325.56;4872698;29;20032;-95
2022/08/05 02:55:53;;;;;;;5.63;4.00;;;;;;;20.16;58.18;99334.25;4887562;29;20459;-94
2022/08/05 02:58:20;;;;;;;5.28;4.00;;;;;;;19.98;58.19;99311.69;4902699;29;20040;-93
2022/08/05 03:00:45;;;;;;;6.00;4.30;;;;;;;19.97;58.93;99313.63;4888155;29;20047;-94
2022/08/05 03:03:15;;;;;;;6.28;4.40;;;;;;;20.12;58.57;99345.03;4887012;29;20083;-94
2022/08/05 03:05:41;;;;;;;6.03;4.05;;;;;;;19.96;58.40;99331.19;4872317;29;20028;-96
2022/08/05 03:08:06;;;;;;;8.80;4.32;;;;;;;20.06;58.78;99337.38;4871971;29;20410;-94
2022/08/05 03:10:32;;;;;;;8.35;4.60;;;;;;;19.91;58.62;99323.16;4887466;29;20036;-93
2022/08/05 03:12:58;;;;;;;6.88;4.00;;;;;;;19.83;58.55;99323.22;4887039;29;20035;-94
2022/08/05 03:15:23;;;;;;;10.45;4.90;;;;;;;19.83;58.79;99334.16;4888427;29;20024;-94
2022/08/05 03:17:49;;;;;;;10.60;4.70;;;;;;;19.77;59.24;99339.00;4888321;29;20032;-94
2022/08/05 03:20:14;;;;;;;7.93;4.32;;;;;;;19.74;58.98;99340.47;4887721;29;20491;-94
2022/08/05 03:22:40;;;;;;;8.13;4.50;;;;;;;19.76;59.29;99346.41;4886474;29;20083;-94
2022/08/05 03:25:05;;;;;;;7.38;4.70;;;;;;;19.77;59.38;99353.44;4871713;29;20035;-93
2022/08/05 03:27:31;;;;;;;7.72;5.20;;;;;;;19.75;59.19;99344.78;4871884;29;20032;-93
2022/08/05 03:29:57;;;;;;;15.05;6.40;;;;;;;19.75;59.47;99350.25;4886568;29;20032;-91
2022/08/05 03:32:23;;;;;;;12.85;6.70;;;;;;;19.71;59.36;99348.50;4888926;29;20040;-94
2022/08/05 03:34:48;;;;;;;11.27;6.35;;;;;;;19.64;59.32;99340.81;4906314;29;20533;-94
2022/08/05 03:37:14;;;;;;;9.80;6.13;;;;;;;19.72;59.48;99363.78;4921587;29;20027;-94
2022/08/05 03:39:53;;;;;;;11.50;5.15;;;;;;;19.58;59.53;99351.13;4921645;29;20094;-92
2022/08/05 03:42:19;;;;;;;8.50;5.13;;;;;;;19.57;59.69;99357.72;4905458;29;20179;-93
2022/08/05 03:44:45;;;;;;;7.72;4.90;;;;;;;19.52;59.39;99355.16;4921449;29;20028;-96
2022/08/05 03:47:11;;;;;;;7.18;4.00;;;;;;;19.41;59.62;99339.50;4890222;29;20090;-95
2022/08/05 03:49:36;;;;;;;6.93;4.35;;;;;;;19.42;59.76;99350.06;4888951;29;20028;-95
2022/08/05 03:52:02;;;;;;;6.55;4.18;;;;;;;19.40;60.11;99352.31;4906499;29;20479;-93
2022/08/05 03:54:38;;;;;;;8.00;3.90;;;;;;;19.42;60.03;99374.63;4906286;29;20028;-94
2022/08/05 03:57:04;;;;;;;8.15;4.18;;;;;;;19.38;60.14;99370.97;4920968;29;20028;-93
2022/08/05 03:59:35;;;;;;;12.05;5.90;;;;;;;19.52;60.14;99373.50;4921595;29;20051;-94
2022/08/05 04:02:01;;;;;;;8.75;5.13;;;;;;;19.51;60.63;99382.81;4890190;29;20040;-94
2022/08/05 04:04:26;;;;;;;12.02;6.07;;;;;;;19.52;59.86;99374.28;4891984;29;20024;-91
2022/08/05 04:06:52;;;;;;;8.73;4.90;;;;;;;19.61;59.57;99374.25;4908650;29;20483;-94
2022/08/05 04:09:17;;;;;;;8.80;4.55;;;;;;;19.66;59.58;99376.78;4891226;29;20471;-96
2022/08/05 04:11:43;;;;;;;7.60;3.85;;;;;;;19.72;58.47;99372.78;4922124;29;20450;-96
2022/08/05 04:14:08;;;;;;;6.10;3.50;;;;;;;19.78;58.36;99362.47;4893466;29;20055;-96
2022/08/05 04:16:40;;;;;;;12.07;3.35;;;;;;;19.75;58.72;99368.59;4923142;29;20031;-96
2022/08/05 04:19:05;;;;;;;6.18;3.65;;;;;;;19.72;58.78;99356.38;4910577;29;20027;-96
2022/08/05 04:21:31;;;;;;;11.02;3.80;;;;;;;19.83;59.34;99375.13;4892790;29;20043;-96
2022/08/05 04:23:57;;;;;;;5.70;3.53;;;;;;;19.61;59.22;99352.41;4906777;29;20483;-96
2022/08/05 04:26:23;;;;;;;5.68;3.78;;;;;;;19.58;59.90;99356.56;4908489;29;20031;-95
2022/08/05 04:28:49;;;;;;;9.55;3.35;;;;;;;19.65;59.45;99350.63;4906670;29;20052;-96
2022/08/05 04:31:14;;;;;;;5.65;3.95;;;;;;;19.84;59.73;99365.78;4883592;29;20135;-95
2022/08/05 04:33:41;;;;;;;11.77;5.30;;;;;;;19.90;59.32;99362.56;4906653;29;20032;-95
2022/08/05 04:36:09;;;;;;;162.43;18.75;;;;;;;19.96;59.08;99368.63;4905946;29;20040;-94
2022/08/05 04:38:36;;;;;;;8.43;4.47;;;;;;;20.01;59.50;99367.66;4877042;29;20039;-95
2022/08/05 04:41:01;;;;;;;6.72;3.90;;;;;;;20.13;58.24;99362.22;4890070;29;20479;-91
2022/08/05 04:43:27;;;;;;;8.32;4.20;;;;;;;20.01;58.94;99362.97;4907228;29;20124;-96
2022/08/05 04:45:52;;;;;;;11.02;4.18;;;;;;;20.02;58.90;99356.34;4893163;29;20039;-93
2022/08/05 04:51:49;;;;;;;6.63;3.70;;;;;;;20.35;58.50;99355.63;4930008;29;20067;-95
2022/08/05 04:54:15;;;;;;;6.53;4.07;;;;;;;20.42;57.54;99358.66;4895922;29;20032;-93
2022/08/05 04:56:54;;;;;;;10.93;4.35;;;;;;;20.50;57.97;99344.09;4893932;29;20039;-96
2022/08/05 04:59:41;;;;;;;10.40;4.35;;;;;;;20.92;57.06;99373.34;4913437;29;20031;-95
2022/08/05 05:02:07;;;;;;;8.38;3.75;;;;;;;20.63;57.27;99338.69;4897131;29;20040;-96
2022/08/05 05:04:32;;;;;;;5.85;4.07;;;;;;;20.71;56.72;99343.28;4891639;29;20503;-90
2022/08/05 05:06:58;;;;;;;11.13;4.13;;;;;;;20.92;56.09;99357.72;4918790;29;20028;-92
2022/08/05 05:09:23;;;;;;;7.07;4.07;;;;;;;20.88;56.45;99356.81;4903101;29;20028;-91
2022/08/05 05:11:49;;;;;;;6.72;4.90;;;;;;;21.03;56.17;99363.56;4889225;29;20028;-92
2022/08/05 05:14:15;;;;;;;7.95;4.03;;;;;;;21.11;56.39;99356.41;4880291;29;20428;-94
2022/08/05 05:16:41;;;;;;;10.13;3.90;;;;;;;21.10;55.17;99335.63;4913276;29;20044;-90
2022/08/05 05:19:07;;;;;;;11.30;4.45;;;;;;;21.36;55.20;99351.75;4886075;29;20404;-90
2022/08/05 05:21:32;;;;;;;7.22;4.82;;;;;;;21.45;55.15;99352.47;4904625;29;20476;-89
2022/08/05 05:23:58;;;;;;;8.68;4.55;;;;;;;21.37;55.00;99351.44;4905896;29;20051;-91
2022/08/05 05:26:24;;;;;;;15.23;6.07;;;;;;;21.55;54.36;99349.28;4901495;29;20032;-89
2022/08/05 05:28:50;;;;;;;10.13;4.97;;;;;;;21.50;54.40;99346.78;4903222;29;20028;-91
2022/08/05 05:31:16;;;;;;;10.80;4.95;;;;;;;21.56;54.32;99345.41;4896957;29;20552;-93
2022/08/05 05:33:41;;;;;;;10.80;5.00;;;;;;;21.73;53.70;99362.75;4871865;29;20439;-90
2022/08/05 05:36:07;;;;;;;9.57;6.90;;;;;;;21.59;53.86;99341.97;4886916;29;20035;-91
2022/08/05 05:38:34;;;;;;;7.55;5.10;;;;;;;21.82;53.27;99336.03;4872082;29;20078;-94
2022/08/05 05:40:59;;;;;;;10.00;5.72;;;;;;;22.16;52.60;99356.66;4903533;29;20032;-93
2022/08/05 05:43:25;;;;;;;9.90;5.35;;;;;;;22.25;52.17;99336.53;4873125;29;20495;-93
2022/08/05 05:45:51;;;;;;;9.40;5.82;;;;;;;22.44;51.79;99355.13;4888040;29;20036;-93
2022/08/05 05:48:16;;;;;;;8.30;5.78;;;;;;;22.60;51.15;99359.50;4868985;29;20468;-95
2022/08/05 05:50:43;;;;;;;11.35;6.05;;;;;;;22.62;50.83;99350.94;4866487;29;20410;-94
2022/08/05 05:53:10;;;;;;;10.07;6.22;;;;;;;22.75;50.65;99352.44;4873337;29;20036;-93
2022/08/05 05:55:36;;;;;;;12.90;6.10;;;;;;;22.84;48.99;99346.81;4872996;29;20529;-93
2022/08/05 05:58:01;;;;;;;16.30;10.93;;;;;;;22.91;50.01;99355.25;4873322;29;20040;-93
2022/08/05 06:00:27;;;;;;;28.63;18.05;;;;;;;23.15;50.53;99354.31;4873641;29;20039;-93
2022/08/05 06:02:54;;;;;;;12.95;9.35;;;;;;;23.30;49.88;99354.69;4891142;29;20024;-94
2022/08/05 06:05:21;;;;;;;24.08;9.85;;;;;;;23.26;49.84;99345.53;4889670;29;20060;-96
2022/08/05 06:07:48;;;;;;;10.63;6.72;;;;;;;23.42;49.71;99346.34;4889562;29;20032;-93
2022/08/05 06:10:14;;;;;;;12.85;5.30;;;;;;;23.53;48.41;99352.09;4887884;29;20423;-94
2022/08/05 06:12:40;;;;;;;13.35;5.63;;;;;;;23.84;48.22;99361.50;4888334;29;20020;-94
2022/08/05 06:15:07;;;;;;;9.35;6.50;;;;;;;23.88;46.62;99338.41;4905554;29;20090;-91
2022/08/05 06:17:34;;;;;;;12.25;6.97;;;;;;;23.98;46.93;99350.81;4906204;29;20122;-92
2022/08/05 06:20:18;;;;;;;8.57;5.57;;;;;;;24.19;46.11;99350.47;4880448;29;20045;-96
2022/08/05 06:22:45;;;;;;;13.00;5.80;;;;;;;24.37;45.81;99359.13;4817869;29;20046;-93
2022/08/05 06:25:42;;;;;;;11.73;6.63;;;;;;;24.36;46.66;99341.81;4783727;29;20537;-95
2022/08/05 06:28:11;;;;;;;9.93;6.43;;;;;;;24.46;45.61;99332.16;4805015;29;20053;-96
2022/08/05 06:30:36;;;;;;;10.73;6.00;;;;;;;24.71;44.93;99346.44;4780220;29;20059;-96
2022/08/05 06:33:02;;;;;;;18.60;10.80;;;;;;;24.80;45.78;99335.22;4795919;29;20038;-89
2022/08/05 06:35:28;;;;;;;13.57;6.68;;;;;;;24.99;45.45;99348.16;4796839;29;20039;-95
2022/08/05 06:37:53;;;;;;;12.20;7.72;;;;;;;25.14;44.84;99346.44;4792382;29;20050;-93
2022/08/05 06:40:29;;;;;;;9.57;7.13;;;;;;;25.17;44.15;99329.97;4792497;29;20042;-93
2022/08/05 06:43:04;;;;;;;12.27;5.57;;;;;;;25.40;44.70;99343.78;4793423;29;20039;-92
2022/08/05 06:52:27;;;;;;;7.97;3.70;;;;;;;25.70;43.92;99340.28;4774336;30;20117;-95
2022/08/05 06:54:58;;;;;;;7.63;4.18;;;;;;;25.95;43.04;99350.91;4731339;30;20042;-94
2022/08/05 06:57:26;;;;;;;18.88;11.75;;;;;;;25.85;42.91;99326.69;4743484;30;20507;-94
2022/08/05 06:59:52;;;;;;;13.48;8.50;;;;;;;25.89;43.98;99322.84;4844429;29;20032;-91
2022/08/05 07:02:20;;;;;;;6.72;3.95;;;;;;;26.26;43.64;99355.28;4869725;29;20044;-94
2022/08/05 07:04:49;;;;;;;7.50;3.38;;;;;;;26.36;42.37;99357.38;4900785;29;20040;-95
2022/08/05 07:07:15;;;;;;;5.35;3.10;;;;;;;26.34;42.54;99339.63;4916127;29;20031;-94
2022/08/05 07:09:43;;;;;;;6.13;3.05;;;;;;;26.48;42.76;99339.78;4924529;29;20050;-95
2022/08/05 07:16:48;;;;;;;4.85;2.72;;;;;;;26.74;42.48;99358.25;4928248;29;20501;-96
2022/08/05 07:17:58;;;;;;;8.85;5.30;;;;;;;26.99;41.62;99341.13;4927808;29;20042;-95
2022/08/05 07:20:23;;;;;;;5.63;3.53;;;;;;;27.13;40.94;99334.97;4919635;29;20031;-93
2022/08/05 07:22:51;;;;;;;3.90;2.75;;;;;;;27.47;40.41;99354.22;4903945;29;20036;-92
2022/08/05 07:25:17;;;;;;;3.83;2.20;;;;;;;27.28;38.86;99327.59;4895688;29;20034;-92
2022/08/05 07:27:42;;;;;;;3.97;2.53;;;;;;;27.53;39.97;99328.59;4902739;29;20555;-95
2022/08/05 07:30:08;;;;;;;3.92;2.08;;;;;;;27.70;38.63;99329.09;4922303;29;20090;-94
2022/08/05 07:32:37;;;;;;;2.53;1.80;;;;;;;27.84;37.78;99333.94;4909854;29;20429;-94
2022/08/05 07:35:18;;;;;;;6.00;2.53;;;;;;;27.92;37.62;99332.81;4925942;29;20041;-94
2022/08/05 07:37:43;;;;;;;3.77;2.00;;;;;;;28.06;36.59;99329.31;4909110;29;20062;-93
2022/08/05 07:40:09;;;;;;;2.47;1.98;;;;;;;28.08;36.94;99325.00;4925784;29;20118;-94
2022/08/05 07:42:45;;;;;;;15.65;11.90;;;;;;;28.34;37.03;99346.06;4925231;29;20042;-94
2022/08/05 07:45:14;;;;;;;4.38;2.33;;;;;;;28.32;36.17;99311.66;4925075;29;20027;-94
2022/08/05 07:47:40;;;;;;;5.03;3.67;;;;;;;28.44;35.68;99327.91;4910500;29;20054;-95
2022/08/05 07:50:11;;;;;;;2.20;1.60;;;;;;;28.48;35.40;99312.09;4931071;29;20055;-96
2022/08/05 07:52:47;;;;;;;;;;;;;;;28.78;35.04;99341.50;4927344;29;20425;-95
2022/08/05 07:55:12;;;;;;;4.13;1.67;;;;;;;28.56;34.96;99324.81;4956385;29;19984;-91
2022/08/05 07:57:38;;;;;;;3.63;2.10;;;;;;;28.72;35.38;99320.88;4939590;29;20171;-94
2022/08/05 08:00:04;;;;;;;3.72;1.88;;;;;;;28.70;34.72;99313.00;4925141;29;20055;-95
2022/08/05 08:02:38;;;;;;;2.10;1.60;;;;;;;28.87;34.41;99344.69;4927549;29;20091;-94
2022/08/05 08:05:06;;;;;;;2.42;1.60;;;;;;;28.84;34.17;99323.28;4919103;29;20035;-94
2022/08/05 08:07:34;;;;;;;7.35;2.20;;;;;;;28.90;34.88;99309.84;4913903;29;20034;-95
2022/08/05 08:10:06;;;;;;;2.53;1.70;;;;;;;28.94;33.99;99313.41;4963800;28;20043;-94
2022/08/05 08:12:41;;;;;;;;;;;;;;;;;;;;;
2022/08/05 08:15:08;;;;;;;3.60;2.20;;;;;;;29.13;34.61;99324.16;4948798;29;20592;-95
2022/08/05 08:17:34;;;;;;;3.22;2.00;;;;;;;29.24;33.93;99324.16;4911220;29;20099;-91
2022/08/05 08:20:27;;;;;;;2.88;1.88;;;;;;;29.10;33.45;99319.41;4950638;29;20058;-95
2022/08/05 08:23:02;;;;;;;1.77;1.40;;;;;;;29.25;33.97;99320.19;4946157;29;20101;-96
2022/08/05 08:25:57;;;;;;;3.80;2.50;;;;;;;29.35;34.27;99329.72;4967235;29;20431;-94
2022/08/05 08:28:55;;;;;;;;;;;;;;;;;;;;;
2022/08/05 08:34:50;;;;;;;;;;;;;;;29.41;33.48;99334.47;4886818;29;20051;-94
2022/08/05 08:40:48;;;;;;;4.03;2.35;;;;;;;29.60;32.84;99315.81;4910582;29;20516;-94
2022/08/05 08:43:13;;;;;;;4.07;1.88;;;;;;;29.67;32.93;99310.25;4905181;29;20101;-94
2022/08/05 08:45:42;;;;;;;2.95;2.00;;;;;;;29.81;33.41;99298.34;4886951;29;20051;-93
2022/08/05 08:48:10;;;;;;;2.40;1.70;;;;;;;29.95;32.71;99311.41;4902289;29;20150;-93
2022/08/05 08:50:40;;;;;;;3.55;2.63;;;;;;;29.97;32.57;99295.94;4900952;29;20033;-93
2022/08/05 08:53:06;;;;;;;2.30;1.70;;;;;;;30.21;32.24;99316.44;4894164;29;20040;-96
2022/08/05 08:55:36;;;;;;;2.00;1.50;;;;;;;30.29;32.35;99308.09;4884457;29;20511;-94
2022/08/05 08:58:01;;;;;;;3.63;1.80;;;;;;;30.20;31.92;99284.31;4894886;29;20043;-94
2022/08/05 09:00:27;;;;;;;1.98;1.67;;;;;;;30.31;31.65;99295.41;4900826;29;20040;-95
2022/08/05 09:03:05;;;;;;;4.07;1.83;;;;;;;30.47;31.46;99314.41;4923495;29;20040;-96
2022/08/05 09:05:31;;;;;;;8.07;4.00;;;;;;;30.38;31.87;99298.16;4943381;29;20487;-95
2022/08/05 09:07:56;;;;;;;6.30;5.10;;;;;;;30.38;31.70;99298.16;4933266;29;20060;-92
2022/08/05 09:10:24;;;;;;;5.22;2.20;;;;;;;30.38;31.18;99280.69;4930111;29;20051;-94
2022/08/05 09:12:50;;;;;;;4.07;2.00;;;;;;;30.51;31.37;99303.28;4946658;29;20031;-95
2022/08/05 09:15:18;;;;;;;3.58;2.00;;;;;;;30.54;31.78;99300.44;4925548;29;20083;-96
2022/08/05 09:17:44;;;;;;;3.83;2.10;;;;;;;30.49;31.25;99294.53;4925724;29;20053;-96
2022/08/05 09:20:42;;;;;;;1.85;1.50;;;;;;;30.23;32.15;99279.94;4930985;29;20494;-95
2022/08/05 09:23:30;;;;;;;2.55;1.77;;;;;;;30.19;32.59;99274.41;4942608;29;20051;-95
2022/08/05 09:26:27;;;;;;;3.30;2.00;;;;;;;30.42;32.40;99282.28;4937980;29;20066;-95
2022/08/05 09:36:06;;;;;;;5.80;1.80;;;;;;;30.59;32.63;99263.13;4876660;29;20063;-95
2022/08/05 09:38:32;;;;;;;4.68;2.25;;;;;;;30.56;32.10;99269.47;4867398;29;20114;-95
2022/08/05 09:41:09;;;;;;;3.80;2.03;;;;;;;30.71;32.05;99267.41;4886739;29;20037;-91
2022/08/05 09:43:38;;;;;;;2.95;1.65;;;;;;;30.46;31.83;99257.22;4872050;29;20047;-94
2022/08/05 09:46:05;;;;;;;3.03;2.17;;;;;;;30.56;31.90;99250.03;4871828;29;20037;-96
2022/08/05 09:48:37;;;;;;;3.97;2.00;;;;;;;30.87;31.51;99256.59;4872202;29;20452;-95
2022/08/05 09:51:07;;;;;;;2.50;2.08;;;;;;;31.18;31.41;99265.84;4881806;29;20041;-95
2022/08/05 09:53:46;;;;;;;2.97;2.05;;;;;;;31.17;31.13;99255.13;4889461;29;20051;-95
2022/08/05 09:56:32;;;;;;;;;;;;;;;;;;;;;
2022/08/05 09:59:30;;;;;;;3.33;1.98;;;;;;;31.32;31.04;99236.34;4906708;29;20123;-96
2022/08/05 10:01:55;;;;;;;2.67;1.80;;;;;;;31.36;31.67;99259.34;4876989;29;20048;-95
2022/08/05 10:04:21;;;;;;;3.85;2.13;;;;;;;31.42;31.03;99252.13;4911162;29;20031;-95
2022/08/05 10:06:56;;;;;;;2.75;2.00;;;;;;;31.40;31.33;99257.31;4940512;29;20035;-96
2022/08/05 10:09:23;;;;;;;3.13;2.05;;;;;;;31.36;31.35;99228.75;4894553;29;20044;-96
2022/08/05 10:11:52;;;;;;;2.78;1.85;;;;;;;31.43;30.67;99242.56;4898013;29;20034;-94
2022/08/05 10:14:30;;;;;;;2.60;2.00;;;;;;;31.46;31.04;99239.00;4903203;29;20463;-96
2022/08/05 10:16:56;;;;;;;3.42;2.10;;;;;;;31.64;31.04;99238.00;4879868;29;20043;-92
2022/08/05 10:19:22;;;;;;;39.17;26.48;;;;;;;31.41;31.45;99231.84;4893825;29;20091;-94
2022/08/05 10:21:48;;;;;;;9.18;6.75;;;;;;;31.39;31.39;99239.03;4910747;29;20075;-95
2022/08/05 10:24:15;;;;;;;3.70;2.55;;;;;;;31.53;31.18;99235.34;4911451;29;20060;-92
2022/08/05 10:26:55;;;;;;;2.72;2.35;;;;;;;31.56;30.51;99256.78;4905683;29;20032;-96
2022/08/05 10:29:32;;;;;;;2.40;1.80;;;;;;;31.31;31.00;99234.75;4925233;29;20051;-95
2022/08/05 10:32:00;;;;;;;2.60;1.90;;;;;;;31.42;31.04;99224.31;4893852;29;20040;-95
2022/08/05 10:34:48;;;;;;;;;;;;;;;;;;;;;
2022/08/05 10:37:31;;;;;;;3.17;2.20;;;;;;;31.40;31.36;99204.47;4932627;29;20055;-96
2022/08/05 10:40:15;;;;;;;3.50;2.13;;;;;;;31.44;30.66;99210.00;4920569;29;20085;-95
2022/08/05 10:42:48;;;;;;;2.97;1.63;;;;;;;31.20;30.05;99232.84;4900711;29;20080;-95
2022/08/05 10:45:22;;;;;;;2.40;1.67;;;;;;;31.21;30.26;99201.06;4911477;29;20047;-96
2022/08/05 10:48:20;;;;;;;2.03;1.63;;;;;;;31.45;29.56;99197.66;4903552;29;20080;-94
2022/08/05 10:51:25;;;;;;;3.05;2.10;;;;;;;31.70;29.76;99214.09;4889432;29;20530;-96
2022/08/05 10:53:50;;;;;;;12.73;8.90;;;;;;;31.85;29.50;99218.25;4849165;29;20057;-96
2022/08/05 10:56:29;;;;;;;4.43;2.40;;;;;;;31.90;28.26;99209.47;4847795;29;20034;-95
2022/08/05 10:59:03;;;;;;;2.42;2.15;;;;;;;32.18;27.82;99210.31;4890612;29;20046;-94
2022/08/05 11:01:48;;;;;;;3.67;1.80;;;;;;;32.33;27.34;99200.53;4883705;29;20064;-95
2022/08/05 11:04:16;;;;;;;2.80;2.00;;;;;;;32.37;27.27;99192.94;4850001;29;20513;-93
2022/08/05 11:07:05;;;;;;;2.40;1.85;;;;;;;32.37;27.85;99206.03;4861387;29;20127;-93
2022/08/05 11:09:44;;;;;;;4.40;1.83;;;;;;;32.47;27.65;99195.97;4866959;29;20149;-95
2022/08/05 11:12:25;;;;;;;4.63;1.80;;;;;;;32.06;28.22;99203.28;4850425;29;20041;-93
2022/08/05 11:15:19;;;;;;;4.07;1.63;;;;;;;31.85;28.96;99192.41;4864243;29;20457;-96
2022/08/05 11:17:55;;;;;;;2.70;2.13;;;;;;;31.81;28.16;99201.63;4865527;29;20034;-95
2022/08/05 11:20:46;;;;;;;3.17;2.00;;;;;;;31.84;28.16;99185.28;4875126;29;20048;-96
2022/08/05 11:23:32;;;;;;;2.30;2.00;;;;;;;31.66;28.87;99177.16;4868398;29;20036;-95
2022/08/05 11:26:21;;;;;;;3.40;2.38;;;;;;;31.78;29.06;99210.78;4864305;29;20081;-95
2022/08/05 11:28:48;;;;;;;3.22;1.90;;;;;;;31.50;29.05;99178.53;4885120;29;20028;-95
2022/08/05 11:31:32;;;;;;;2.50;1.90;;;;;;;31.65;28.17;99206.97;4911901;29;20086;-95
2022/08/05 11:34:34;;;;;;;3.45;1.90;;;;;;;31.61;28.17;99195.88;4927206;28;20028;-96
2022/08/05 11:37:03;;;;;;;3.30;2.35;;;;;;;31.35;27.62;99171.50;4922582;29;20039;-92
2022/08/05 11:39:50;;;;;;;7.25;5.43;;;;;;;31.66;27.83;99175.16;4924147;29;20110;-92
2022/08/05 11:42:17;;;;;;;4.20;2.17;;;;;;;31.74;27.90;99170.28;4907424;29;20031;-91
2022/08/05 11:44:42;;;;;;;3.03;2.10;;;;;;;31.84;27.60;99155.44;4939859;29;20093;-91
2022/08/05 11:47:08;;;;;;;5.15;3.42;;;;;;;31.99;27.68;99162.41;4926780;29;20029;-93
2022/08/05 11:49:47;;;;;;;3.70;2.33;;;;;;;32.20;27.67;99155.72;4914212;29;20459;-95
2022/08/05 11:56:26;;;;;;;4.22;2.80;;;;;;;32.61;27.87;99165.09;4887176;29;20085;-95
2022/08/05 11:58:54;;;;;;;4.65;2.83;;;;;;;32.47;26.96;99140.22;4886778;29;20040;-95
2022/08/05 12:01:23;;;;;;;6.50;2.65;;;;;;;32.50;27.27;99142.94;4869518;29;20040;-94
2022/08/05 12:04:16;;;;;;;4.00;2.38;;;;;;;32.43;27.29;99171.69;4872564;29;20044;-93
2022/08/05 12:06:43;;;;;;;4.25;2.50;;;;;;;31.99;27.43;99161.63;4906018;29;20056;-94
2022/08/05 12:09:11;;;;;;;4.38;2.67;;;;;;;31.61;28.17;99159.69;4890752;29;20067;-95
2022/08/05 12:11:59;;;;;;;3.80;2.35;;;;;;;31.69;27.93;99159.59;4879237;29;20571;-95
2022/08/05 12:14:25;;;;;;;3.97;2.35;;;;;;;31.57;27.91;99150.59;4886640;29;20037;-95
2022/08/05 12:16:54;;;;;;;3.65;2.78;;;;;;;31.65;28.52;99153.28;4891683;29;20112;-92
2022/08/05 12:19:22;;;;;;;3.33;2.20;;;;;;;31.64;27.64;99146.16;4920738;29;20035;-94
2022/08/05 12:22:34;;;;;;;3.03;2.30;;;;;;;31.73;27.08;99147.22;4948462;29;20019;-94
2022/08/05 12:25:04;;;;;;;3.75;2.20;;;;;;;31.97;27.02;99141.72;4947600;29;20098;-95